sensor_id;sensor_type;location;lat;lon;timestamp;pressure;altitude;pressure_sealevel;temperature;humidity
56811;BME280;42691;47.234;27.494;2023-02-28T00:00:38;100738.00;;;8.53;100.00
56811;BME280;42691;47.234;27.494;2023-02-28T00:03:04;100743.22;;;8.52;100.00
56811;BME280;42691;47.234;27.494;2023-02-28T00:05:29;100738.00;;;8.53;100.00
56811;BME280;42691;47.234;27.494;2023-02-28T00:07:55;100742.28;;;8.57;100.00
56811;BME280;42691;47.234;27.494;2023-02-28T00:10:22;100739.59;;;8.60;100.00
56811;BME280;42691;47.234;27.494;2023-02-28T00:12:48;100751.66;;;8.63;100.00
56811;BME280;42691;47.234;27.494;2023-02-28T00:15:14;100745.59;;;8.62;100.00
56811;BME280;42691;47.234;27.494;2023-02-28T00:17:40;100755.97;;;8.62;100.00
56811;BME280;42691;47.234;27.494;2023-02-28T00:20:05;100755.06;;;8.65;100.00
56811;BME280;42691;47.234;27.494;2023-02-28T00:22:33;100754.13;;;8.67;100.00
56811;BME280;42691;47.234;27.494;2023-02-28T00:24:58;100761.03;;;8.68;100.00
56811;BME280;42691;47.234;27.494;2023-02-28T00:27:23;100759.31;;;8.67;100.00
56811;BME280;42691;47.234;27.494;2023-02-28T00:29:49;100764.50;;;8.67;100.00
56811;BME280;42691;47.234;27.494;2023-02-28T00:32:14;100769.75;;;8.64;100.00
56811;BME280;42691;47.234;27.494;2023-02-28T00:34:40;100765.50;;;8.62;100.00
56811;BME280;42691;47.234;27.494;2023-02-28T00:37:05;100775.81;;;8.65;100.00
56811;BME280;42691;47.234;27.494;2023-02-28T00:39:31;100765.31;;;8.69;100.00
56811;BME280;42691;47.234;27.494;2023-02-28T00:41:58;100782.66;;;8.67;100.00
56811;BME280;42691;47.234;27.494;2023-02-28T00:44:23;100785.34;;;8.64;100.00
56811;BME280;42691;47.234;27.494;2023-02-28T00:46:48;100787.91;;;8.64;100.00
56811;BME280;42691;47.234;27.494;2023-02-28T00:49:14;100783.63;;;8.63;100.00
56811;BME280;42691;47.234;27.494;2023-02-28T00:51:39;100789.69;;;8.62;100.00
56811;BME280;42691;47.234;27.494;2023-02-28T00:54:04;100789.84;;;8.56;100.00
56811;BME280;42691;47.234;27.494;2023-02-28T00:56:29;100793.25;;;8.58;100.00
56811;BME280;42691;47.234;27.494;2023-02-28T00:58:55;100787.25;;;8.56;100.00
56811;BME280;42691;47.234;27.494;2023-02-28T01:01:20;100792.47;;;8.53;100.00
56811;BME280;42691;47.234;27.494;2023-02-28T01:03:45;100801.16;;;8.52;100.00
56811;BME280;42691;47.234;27.494;2023-02-28T01:06:11;100811.50;;;8.52;100.00
56811;BME280;42691;47.234;27.494;2023-02-28T01:08:36;100808.94;;;8.52;100.00
56811;BME280;42691;47.234;27.494;2023-02-28T01:11:11;100815.00;;;8.51;100.00
56811;BME280;42691;47.234;27.494;2023-02-28T01:13:36;100814.06;;;8.54;100.00
56811;BME280;42691;47.234;27.494;2023-02-28T01:16:02;100814.03;;;8.57;100.00
56811;BME280;42691;47.234;27.494;2023-02-28T01:18:27;100814.97;;;8.53;100.00
56811;BME280;42691;47.234;27.494;2023-02-28T01:20:53;100816.78;;;8.49;100.00
56811;BME280;42691;47.234;27.494;2023-02-28T01:23:19;100823.72;;;8.47;100.00
56811;BME280;42691;47.234;27.494;2023-02-28T01:25:45;100817.69;;;8.46;100.00
56811;BME280;42691;47.234;27.494;2023-02-28T01:28:10;100814.25;;;8.46;100.00
56811;BME280;42691;47.234;27.494;2023-02-28T01:30:36;100827.22;;;8.46;100.00
56811;BME280;42691;47.234;27.494;2023-02-28T01:33:01;100813.50;;;8.41;100.00
56811;BME280;42691;47.234;27.494;2023-02-28T01:35:26;100805.78;;;8.38;100.00
56811;BME280;42691;47.234;27.494;2023-02-28T01:37:51;100812.63;;;8.40;100.00
56811;BME280;42691;47.234;27.494;2023-02-28T01:40:17;100805.03;;;8.31;100.00
56811;BME280;42691;47.234;27.494;2023-02-28T01:42:42;100793.78;;;8.32;100.00
56811;BME280;42691;47.234;27.494;2023-02-28T01:47:34;100789.47;;;8.31;100.00
56811;BME280;42691;47.234;27.494;2023-02-28T01:50:02;100796.47;;;8.28;100.00
56811;BME280;42691;47.234;27.494;2023-02-28T01:52:29;100805.97;;;8.27;100.00
56811;BME280;42691;47.234;27.494;2023-02-28T01:54:55;100801.56;;;8.32;100.00
56811;BME280;42691;47.234;27.494;2023-02-28T01:57:23;100794.69;;;8.30;100.00
56811;BME280;42691;47.234;27.494;2023-02-28T01:59:52;100801.59;;;8.31;100.00
56811;BME280;42691;47.234;27.494;2023-02-28T02:02:20;100797.31;;;8.28;100.00
56811;BME280;42691;47.234;27.494;2023-02-28T02:04:56;100799.88;;;8.30;100.00
56811;BME280;42691;47.234;27.494;2023-02-28T02:07:23;100789.59;;;8.25;100.00
56811;BME280;42691;47.234;27.494;2023-02-28T02:09:56;100780.13;;;8.24;100.00
56811;BME280;42691;47.234;27.494;2023-02-28T02:12:26;100793.06;;;8.26;100.00
56811;BME280;42691;47.234;27.494;2023-02-28T02:15:16;100801.69;;;8.26;100.00
56811;BME280;42691;47.234;27.494;2023-02-28T02:17:43;100808.53;;;8.29;100.00
56811;BME280;42691;47.234;27.494;2023-02-28T02:29:18;100835.28;;;8.31;100.00
56811;BME280;42691;47.234;27.494;2023-02-28T02:38:49;100824.88;;;8.34;100.00
56811;BME280;42691;47.234;27.494;2023-02-28T02:43:48;100825.53;;;8.43;100.00
56811;BME280;42691;47.234;27.494;2023-02-28T02:46:19;100835.03;;;8.44;100.00
56811;BME280;42691;47.234;27.494;2023-02-28T02:48:45;100827.16;;;8.49;100.00
56811;BME280;42691;47.234;27.494;2023-02-28T02:51:13;100833.16;;;8.51;100.00
56811;BME280;42691;47.234;27.494;2023-02-28T02:53:42;100834.97;;;8.48;100.00
56811;BME280;42691;47.234;27.494;2023-02-28T02:56:10;100842.63;;;8.52;100.00
56811;BME280;42691;47.234;27.494;2023-02-28T02:58:37;100840.16;;;8.48;100.00
56811;BME280;42691;47.234;27.494;2023-02-28T03:01:07;100844.47;;;8.47;100.00
56811;BME280;42691;47.234;27.494;2023-02-28T03:03:34;100841.88;;;8.47;100.00
56811;BME280;42691;47.234;27.494;2023-02-28T03:06:00;100838.41;;;8.48;100.00
56811;BME280;42691;47.234;27.494;2023-02-28T03:08:27;100838.31;;;8.53;100.00
56811;BME280;42691;47.234;27.494;2023-02-28T03:11:00;100851.31;;;8.51;100.00
56811;BME280;42691;47.234;27.494;2023-02-28T03:16:41;100847.78;;;8.55;100.00
56811;BME280;42691;47.234;27.494;2023-02-28T03:26:57;100851.91;;;8.64;100.00
56811;BME280;42691;47.234;27.494;2023-02-28T03:29:31;100849.28;;;8.65;100.00
56811;BME280;42691;47.234;27.494;2023-02-28T03:34:39;100851.97;;;8.62;100.00
56811;BME280;42691;47.234;27.494;2023-02-28T03:37:14;100853.66;;;8.63;100.00
56811;BME280;42691;47.234;27.494;2023-02-28T03:39:43;100851.13;;;8.60;100.00
56811;BME280;42691;47.234;27.494;2023-02-28T03:42:14;100846.88;;;8.58;100.00
56811;BME280;42691;47.234;27.494;2023-02-28T03:44:42;100849.50;;;8.56;100.00
56811;BME280;42691;47.234;27.494;2023-02-28T03:47:12;100857.38;;;8.50;100.00
56811;BME280;42691;47.234;27.494;2023-02-28T03:49:43;100857.38;;;8.50;100.00
56811;BME280;42691;47.234;27.494;2023-02-28T03:52:12;100815.50;;;8.27;100.00
56811;BME280;42691;47.234;27.494;2023-02-28T03:54:41;100854.03;;;8.45;100.00
56811;BME280;42691;47.234;27.494;2023-02-28T03:57:11;100853.22;;;8.43;100.00
56811;BME280;42691;47.234;27.494;2023-02-28T03:59:43;100858.41;;;8.43;100.00
56811;BME280;42691;47.234;27.494;2023-02-28T04:02:10;100857.53;;;8.42;100.00
56811;BME280;42691;47.234;27.494;2023-02-28T04:04:35;100859.19;;;8.46;100.00
56811;BME280;42691;47.234;27.494;2023-02-28T04:07:02;100854.06;;;8.43;100.00
56811;BME280;42691;47.234;27.494;2023-02-28T04:09:28;100863.59;;;8.43;100.00
56811;BME280;42691;47.234;27.494;2023-02-28T04:11:53;100856.69;;;8.42;100.00
56811;BME280;42691;47.234;27.494;2023-02-28T04:14:20;100857.59;;;8.39;100.00
56811;BME280;42691;47.234;27.494;2023-02-28T04:16:46;100859.34;;;8.39;100.00
56811;BME280;42691;47.234;27.494;2023-02-28T04:19:12;100862.00;;;8.36;100.00
56811;BME280;42691;47.234;27.494;2023-02-28T04:21:39;100864.63;;;8.34;100.00
56811;BME280;42691;47.234;27.494;2023-02-28T04:24:04;100854.25;;;8.33;100.00
56811;BME280;42691;47.234;27.494;2023-02-28T04:26:30;100862.88;;;8.35;100.00
56811;BME280;42691;47.234;27.494;2023-02-28T04:28:56;100865.50;;;8.32;100.00
56811;BME280;42691;47.234;27.494;2023-02-28T04:31:21;100859.56;;;8.27;100.00
56811;BME280;42691;47.234;27.494;2023-02-28T04:33:47;100868.28;;;8.23;100.00
56811;BME280;42691;47.234;27.494;2023-02-28T04:36:12;100869.16;;;8.23;100.00
56811;BME280;42691;47.234;27.494;2023-02-28T04:38:39;100869.16;;;8.23;100.00
56811;BME280;42691;47.234;27.494;2023-02-28T04:41:04;100850.22;;;8.20;100.00
56811;BME280;42691;47.234;27.494;2023-02-28T04:43:30;100862.34;;;8.16;100.00
56811;BME280;42691;47.234;27.494;2023-02-28T04:45:56;100860.63;;;8.15;100.00
56811;BME280;42691;47.234;27.494;2023-02-28T04:48:23;100860.56;;;8.20;100.00
56811;BME280;42691;47.234;27.494;2023-02-28T04:50:48;100864.06;;;8.19;100.00
56811;BME280;42691;47.234;27.494;2023-02-28T04:53:13;100863.25;;;8.13;100.00
56811;BME280;42691;47.234;27.494;2023-02-28T04:55:39;100865.09;;;8.08;100.00
56811;BME280;42691;47.234;27.494;2023-02-28T04:58:05;100872.06;;;8.05;100.00
56811;BME280;42691;47.234;27.494;2023-02-28T05:00:31;100867.81;;;8.02;100.00
56811;BME280;42691;47.234;27.494;2023-02-28T05:02:56;100866.94;;;8.02;100.00
56811;BME280;42691;47.234;27.494;2023-02-28T05:05:21;100876.50;;;8.00;100.00
56811;BME280;42691;47.234;27.494;2023-02-28T05:07:47;100885.13;;;8.00;100.00
56811;BME280;42691;47.234;27.494;2023-02-28T05:10:12;100885.91;;;8.04;100.00
56811;BME280;42691;47.234;27.494;2023-02-28T05:12:37;100883.34;;;8.02;100.00
56811;BME280;42691;47.234;27.494;2023-02-28T05:15:04;100892.94;;;7.97;100.00
56811;BME280;42691;47.234;27.494;2023-02-28T05:17:30;100884.34;;;7.95;100.00
56811;BME280;42691;47.234;27.494;2023-02-28T05:19:55;100892.09;;;7.97;100.00
56811;BME280;42691;47.234;27.494;2023-02-28T05:22:20;100885.22;;;7.96;100.00
56811;BME280;42691;47.234;27.494;2023-02-28T05:24:45;100883.59;;;7.90;100.00
56811;BME280;42691;47.234;27.494;2023-02-28T05:27:11;100890.53;;;7.88;100.00
56811;BME280;42691;47.234;27.494;2023-02-28T05:29:36;100883.59;;;7.90;100.00
56811;BME280;42691;47.234;27.494;2023-02-28T05:32:08;100891.41;;;7.87;100.00
56811;BME280;42691;47.234;27.494;2023-02-28T05:34:33;100894.06;;;7.84;100.00
56811;BME280;42691;47.234;27.494;2023-02-28T05:36:58;100898.38;;;7.83;100.00
56811;BME280;42691;47.234;27.494;2023-02-28T05:39:24;100904.47;;;7.81;100.00
56811;BME280;42691;47.234;27.494;2023-02-28T05:41:49;100909.66;;;7.81;100.00
56811;BME280;42691;47.234;27.494;2023-02-28T05:44:15;100914.78;;;7.84;100.00
56811;BME280;42691;47.234;27.494;2023-02-28T05:46:40;100911.31;;;7.85;100.00
56811;BME280;42691;47.234;27.494;2023-02-28T05:49:05;100905.22;;;7.88;100.00
56811;BME280;42691;47.234;27.494;2023-02-28T05:51:30;100912.97;;;7.89;100.00
56811;BME280;42691;47.234;27.494;2023-02-28T05:53:58;100911.25;;;7.88;100.00
56811;BME280;42691;47.234;27.494;2023-02-28T05:56:23;100921.69;;;7.85;100.00
56811;BME280;42691;47.234;27.494;2023-02-28T05:58:48;100924.31;;;7.82;100.00
56811;BME280;42691;47.234;27.494;2023-02-28T06:01:24;100931.25;;;7.80;100.00
56811;BME280;42691;47.234;27.494;2023-02-28T06:03:55;100927.03;;;7.73;100.00
56811;BME280;42691;47.234;27.494;2023-02-28T06:06:20;100926.97;;;7.77;100.00
56811;BME280;42691;47.234;27.494;2023-02-28T06:08:46;100935.56;;;7.81;100.00
56811;BME280;42691;47.234;27.494;2023-02-28T06:11:11;100939.00;;;7.81;100.00
56811;BME280;42691;47.234;27.494;2023-02-28T06:13:36;100940.63;;;7.87;100.00
56811;BME280;42691;47.234;27.494;2023-02-28T06:16:02;100940.69;;;7.84;100.00
56811;BME280;42691;47.234;27.494;2023-02-28T06:18:27;100939.00;;;7.80;100.00
56811;BME280;42691;47.234;27.494;2023-02-28T06:20:53;100934.75;;;7.76;100.00
56811;BME280;42691;47.234;27.494;2023-02-28T06:23:19;100939.91;;;7.77;100.00
56811;BME280;42691;47.234;27.494;2023-02-28T06:25:45;100939.06;;;7.77;100.00
56811;BME280;42691;47.234;27.494;2023-02-28T06:28:10;100940.00;;;7.73;100.00
56811;BME280;42691;47.234;27.494;2023-02-28T06:30:36;100928.81;;;7.71;100.00
56811;BME280;42691;47.234;27.494;2023-02-28T06:33:02;100932.28;;;7.70;100.00
56811;BME280;42691;47.234;27.494;2023-02-28T06:35:27;100925.44;;;7.66;100.00
56811;BME280;42691;47.234;27.494;2023-02-28T06:37:52;100921.13;;;7.66;100.00
56811;BME280;42691;47.234;27.494;2023-02-28T06:40:18;100922.78;;;7.69;100.00
56811;BME280;42691;47.234;27.494;2023-02-28T06:42:43;100918.44;;;7.71;100.00
56811;BME280;42691;47.234;27.494;2023-02-28T06:45:09;100920.97;;;7.74;100.00
56811;BME280;42691;47.234;27.494;2023-02-28T06:47:35;100928.75;;;7.74;100.00
56811;BME280;42691;47.234;27.494;2023-02-28T06:50:01;100932.31;;;7.67;100.00
56811;BME280;42691;47.234;27.494;2023-02-28T06:52:26;100927.19;;;7.65;100.00
56811;BME280;42691;47.234;27.494;2023-02-28T06:54:51;100933.19;;;7.67;100.00
56811;BME280;42691;47.234;27.494;2023-02-28T06:57:26;100934.91;;;7.67;100.00
56811;BME280;42691;47.234;27.494;2023-02-28T06:59:52;100933.16;;;7.69;100.00
56811;BME280;42691;47.234;27.494;2023-02-28T07:02:17;100940.91;;;7.70;100.00
56811;BME280;42691;47.234;27.494;2023-02-28T07:04:43;100935.69;;;7.72;100.00
56811;BME280;42691;47.234;27.494;2023-02-28T07:07:09;100937.38;;;7.74;100.00
56811;BME280;42691;47.234;27.494;2023-02-28T07:09:34;100943.34;;;7.79;100.00
56811;BME280;42691;47.234;27.494;2023-02-28T07:12:00;100938.16;;;7.79;100.00
56811;BME280;42691;47.234;27.494;2023-02-28T07:14:25;100935.50;;;7.84;100.00
56811;BME280;42691;47.234;27.494;2023-02-28T07:16:51;100945.03;;;7.82;100.00
56811;BME280;42691;47.234;27.494;2023-02-28T07:19:16;100938.16;;;7.81;100.00
56811;BME280;42691;47.234;27.494;2023-02-28T07:21:42;100942.47;;;7.82;100.00
56811;BME280;42691;47.234;27.494;2023-02-28T07:24:07;100943.22;;;7.87;100.00
56811;BME280;42691;47.234;27.494;2023-02-28T07:26:33;100945.78;;;7.89;100.00
56811;BME280;42691;47.234;27.494;2023-02-28T07:29:01;100951.75;;;7.94;100.00
56811;BME280;42691;47.234;27.494;2023-02-28T07:31:27;100956.94;;;7.94;100.00
56811;BME280;42691;47.234;27.494;2023-02-28T07:33:52;100961.22;;;7.95;100.00
56811;BME280;42691;47.234;27.494;2023-02-28T07:36:18;100957.69;;;8.00;100.00
56811;BME280;42691;47.234;27.494;2023-02-28T07:38:45;100956.75;;;8.04;100.00
56811;BME280;42691;47.234;27.494;2023-02-28T07:41:11;100955.81;;;8.08;100.00
56811;BME280;42691;47.234;27.494;2023-02-28T07:43:37;100960.91;;;8.13;100.00
56811;BME280;42691;47.234;27.494;2023-02-28T07:46:07;100959.09;;;8.16;100.00
56811;BME280;42691;47.234;27.494;2023-02-28T07:48:33;100966.88;;;8.16;100.00
56811;BME280;42691;47.234;27.494;2023-02-28T07:50:59;100961.59;;;8.24;100.00
56811;BME280;42691;47.234;27.494;2023-02-28T07:53:24;100960.69;;;8.27;100.00
56811;BME280;42691;47.234;27.494;2023-02-28T07:55:50;100975.31;;;8.29;100.00
56811;BME280;42691;47.234;27.494;2023-02-28T07:58:15;100966.66;;;8.30;100.00
56811;BME280;42691;47.234;27.494;2023-02-28T08:00:41;100959.72;;;8.31;100.00
56811;BME280;42691;47.234;27.494;2023-02-28T08:03:07;100964.88;;;8.34;100.00
56811;BME280;42691;47.234;27.494;2023-02-28T08:05:37;100967.41;;;8.38;100.00
56811;BME280;42691;47.234;27.494;2023-02-28T08:08:02;100968.22;;;8.40;100.00
56811;BME280;42691;47.234;27.494;2023-02-28T08:10:28;100973.31;;;8.45;100.00
56811;BME280;42691;47.234;27.494;2023-02-28T08:12:53;100979.28;;;8.50;100.00
56811;BME280;42691;47.234;27.494;2023-02-28T08:15:18;100982.75;;;8.49;100.00
56811;BME280;42691;47.234;27.494;2023-02-28T08:17:44;100974.19;;;8.44;100.00
56811;BME280;42691;47.234;27.494;2023-02-28T08:20:09;100978.44;;;8.48;100.00
56811;BME280;42691;47.234;27.494;2023-02-28T08:22:35;100988.72;;;8.53;100.00
56811;BME280;42691;47.234;27.494;2023-02-28T08:25:00;100985.22;;;8.57;100.00
56811;BME280;42691;47.234;27.494;2023-02-28T08:27:25;100987.66;;;8.64;100.00
56811;BME280;42691;47.234;27.494;2023-02-28T08:29:51;100984.09;;;8.70;100.00
56811;BME280;42691;47.234;27.494;2023-02-28T08:32:16;100987.47;;;8.73;100.00
56811;BME280;42691;47.234;27.494;2023-02-28T08:34:41;100990.91;;;8.75;100.00
56811;BME280;42691;47.234;27.494;2023-02-28T08:37:07;100985.72;;;8.75;100.00
56811;BME280;42691;47.234;27.494;2023-02-28T08:39:35;100980.31;;;8.85;100.00
56811;BME280;42691;47.234;27.494;2023-02-28T08:42:01;100986.25;;;8.91;100.00
56811;BME280;42691;47.234;27.494;2023-02-28T08:44:27;100985.34;;;8.94;100.00
56811;BME280;42691;47.234;27.494;2023-02-28T08:46:52;100991.41;;;8.94;100.00
56811;BME280;42691;47.234;27.494;2023-02-28T08:49:18;100987.16;;;8.89;100.00
56811;BME280;42691;47.234;27.494;2023-02-28T08:51:43;100984.50;;;8.93;100.00
56811;BME280;42691;47.234;27.494;2023-02-28T08:54:09;100976.47;;;9.04;100.00
56811;BME280;42691;47.234;27.494;2023-02-28T08:56:37;100986.53;;;9.19;100.00
56811;BME280;42691;47.234;27.494;2023-02-28T08:59:02;100985.44;;;9.31;100.00
56811;BME280;42691;47.234;27.494;2023-02-28T09:01:28;100979.31;;;9.33;100.00
56811;BME280;42691;47.234;27.494;2023-02-28T09:03:54;100987.16;;;9.29;100.00
56811;BME280;42691;47.234;27.494;2023-02-28T09:06:20;100974.22;;;9.27;100.00
56811;BME280;42691;47.234;27.494;2023-02-28T09:08:46;100977.66;;;9.28;100.00
56811;BME280;42691;47.234;27.494;2023-02-28T09:11:11;100976.56;;;9.39;100.00
56811;BME280;42691;47.234;27.494;2023-02-28T09:13:37;100983.28;;;9.48;100.00
56811;BME280;42691;47.234;27.494;2023-02-28T09:16:04;100988.34;;;9.54;100.00
56811;BME280;42691;47.234;27.494;2023-02-28T09:18:30;100990.78;;;9.60;100.00
56811;BME280;42691;47.234;27.494;2023-02-28T09:20:55;100990.84;;;9.59;100.00
56811;BME280;42691;47.234;27.494;2023-02-28T09:23:22;100987.44;;;9.55;100.00
56811;BME280;42691;47.234;27.494;2023-02-28T09:25:49;100992.47;;;9.63;100.00
56811;BME280;42691;47.234;27.494;2023-02-28T09:28:14;100981.94;;;9.69;100.00
56811;BME280;42691;47.234;27.494;2023-02-28T09:30:41;100983.44;;;9.79;100.00
56811;BME280;42691;47.234;27.494;2023-02-28T09:33:06;100987.59;;;9.86;100.00
56811;BME280;42691;47.234;27.494;2023-02-28T09:35:31;100973.69;;;9.87;100.00
56811;BME280;42691;47.234;27.494;2023-02-28T09:37:57;100978.91;;;9.87;100.00
56811;BME280;42691;47.234;27.494;2023-02-28T09:40:24;100974.81;;;9.77;100.00
56811;BME280;42691;47.234;27.494;2023-02-28T09:42:51;100986.06;;;9.78;100.00
56811;BME280;42691;47.234;27.494;2023-02-28T09:47:47;100982.31;;;9.89;100.00
56811;BME280;42691;47.234;27.494;2023-02-28T09:52:41;100986.78;;;9.84;100.00
56811;BME280;42691;47.234;27.494;2023-02-28T09:55:26;100982.34;;;9.88;100.00
56811;BME280;42691;47.234;27.494;2023-02-28T09:57:53;100985.56;;;9.97;100.00
56811;BME280;42691;47.234;27.494;2023-02-28T10:05:33;100981.97;;;10.03;100.00
56811;BME280;42691;47.234;27.494;2023-02-28T10:08:11;100977.41;;;10.13;100.00
56811;BME280;42691;47.234;27.494;2023-02-28T10:10:42;100980.69;;;10.21;100.00
56811;BME280;42691;47.234;27.494;2023-02-28T10:13:13;100976.00;;;10.33;100.00
56811;BME280;42691;47.234;27.494;2023-02-28T10:15:39;100977.66;;;10.36;100.00
56811;BME280;42691;47.234;27.494;2023-02-28T10:18:06;100988.88;;;10.38;100.00
56811;BME280;42691;47.234;27.494;2023-02-28T10:20:37;100972.34;;;10.42;100.00
56811;BME280;42691;47.234;27.494;2023-02-28T10:25:34;100974.69;;;10.51;100.00
56811;BME280;42691;47.234;27.494;2023-02-28T10:28:32;100968.72;;;10.48;100.00
56811;BME280;42691;47.234;27.494;2023-02-28T10:30:52;100976.25;;;10.57;100.00
56811;BME280;42691;47.234;27.494;2023-02-28T10:33:25;100978.66;;;10.64;100.00
56811;BME280;42691;47.234;27.494;2023-02-28T10:35:53;100966.41;;;10.68;100.00
56811;BME280;42691;47.234;27.494;2023-02-28T10:38:23;100960.34;;;10.68;100.00
56811;BME280;42691;47.234;27.494;2023-02-28T10:40:50;100955.94;;;10.70;100.00
56811;BME280;42691;47.234;27.494;2023-02-28T10:45:57;100951.53;;;10.72;100.00
56811;BME280;42691;47.234;27.494;2023-02-28T10:48:31;100949.94;;;10.68;100.00
56811;BME280;42691;47.234;27.494;2023-02-28T10:50:57;100941.41;;;10.62;100.00
56811;BME280;42691;47.234;27.494;2023-02-28T10:58:24;100939.59;;;10.64;100.00
56811;BME280;42691;47.234;27.494;2023-02-28T11:00:50;100935.97;;;10.70;100.00
56811;BME280;42691;47.234;27.494;2023-02-28T11:03:23;100938.66;;;10.67;100.00
56811;BME280;42691;47.234;27.494;2023-02-28T11:05:49;100938.16;;;10.54;100.00
56811;BME280;42691;47.234;27.494;2023-02-28T11:08:15;100942.81;;;10.43;100.00
56811;BME280;42691;47.234;27.494;2023-02-28T11:11:04;100942.00;;;10.41;100.00
56811;BME280;42691;47.234;27.494;2023-02-28T11:13:31;100938.75;;;10.33;100.00
56811;BME280;42691;47.234;27.494;2023-02-28T11:15:59;100931.91;;;10.29;100.00
56811;BME280;42691;47.234;27.494;2023-02-28T11:18:39;100928.53;;;10.25;100.00
56811;BME280;42691;47.234;27.494;2023-02-28T11:21:06;100920.84;;;10.22;100.00
56811;BME280;42691;47.234;27.494;2023-02-28T11:23:33;100932.09;;;10.23;100.00
56811;BME280;42691;47.234;27.494;2023-02-28T11:26:01;100914.84;;;10.19;100.00
56811;BME280;42691;47.234;27.494;2023-02-28T11:28:33;100924.28;;;10.23;100.00
56811;BME280;42691;47.234;27.494;2023-02-28T11:31:04;100925.22;;;10.19;100.00
56811;BME280;42691;47.234;27.494;2023-02-28T11:36:03;100917.16;;;10.29;100.00
